sensor_id;sensor_type;location;lat;lon;timestamp;temperature;humidity
53800;DHT22;39708;53.210;6.948;2022-12-29T00:02:14;9.40;99.90
53800;DHT22;39708;53.210;6.948;2022-12-29T00:04:40;9.40;99.90
53800;DHT22;39708;53.210;6.948;2022-12-29T00:07:07;9.40;99.90
53800;DHT22;39708;53.210;6.948;2022-12-29T00:09:34;9.50;99.90
53800;DHT22;39708;53.210;6.948;2022-12-29T00:12:00;9.50;99.90
53800;DHT22;39708;53.210;6.948;2022-12-29T00:14:27;9.40;99.90
53800;DHT22;39708;53.210;6.948;2022-12-29T00:17:11;9.40;99.90
53800;DHT22;39708;53.210;6.948;2022-12-29T00:19:37;9.50;99.90
53800;DHT22;39708;53.210;6.948;2022-12-29T00:22:21;9.50;99.90
53800;DHT22;39708;53.210;6.948;2022-12-29T00:25:08;9.50;99.90
53800;DHT22;39708;53.210;6.948;2022-12-29T00:27:34;9.50;99.90
53800;DHT22;39708;53.210;6.948;2022-12-29T00:30:21;9.50;99.90
53800;DHT22;39708;53.210;6.948;2022-12-29T00:36:04;9.50;99.90
53800;DHT22;39708;53.210;6.948;2022-12-29T00:38:32;9.50;99.90
53800;DHT22;39708;53.210;6.948;2022-12-29T00:41:17;9.50;99.90
53800;DHT22;39708;53.210;6.948;2022-12-29T00:44:02;9.50;99.90
53800;DHT22;39708;53.210;6.948;2022-12-29T00:46:34;9.60;99.90
53800;DHT22;39708;53.210;6.948;2022-12-29T00:49:01;9.60;99.90
53800;DHT22;39708;53.210;6.948;2022-12-29T00:51:45;9.60;99.90
53800;DHT22;39708;53.210;6.948;2022-12-29T00:54:11;9.60;99.90
53800;DHT22;39708;53.210;6.948;2022-12-29T00:56:37;9.70;99.90
53800;DHT22;39708;53.210;6.948;2022-12-29T00:59:07;9.70;99.90
53800;DHT22;39708;53.210;6.948;2022-12-29T01:01:33;9.60;99.90
53800;DHT22;39708;53.210;6.948;2022-12-29T01:03:59;9.70;99.90
53800;DHT22;39708;53.210;6.948;2022-12-29T01:06:25;9.80;99.90
53800;DHT22;39708;53.210;6.948;2022-12-29T01:08:51;9.90;99.90
53800;DHT22;39708;53.210;6.948;2022-12-29T01:11:38;9.90;99.90
53800;DHT22;39708;53.210;6.948;2022-12-29T01:14:05;9.90;99.90
53800;DHT22;39708;53.210;6.948;2022-12-29T01:16:31;9.90;99.90
53800;DHT22;39708;53.210;6.948;2022-12-29T01:18:57;9.80;99.90
53800;DHT22;39708;53.210;6.948;2022-12-29T01:21:23;9.80;99.90
53800;DHT22;39708;53.210;6.948;2022-12-29T01:23:48;9.40;99.90
53800;DHT22;39708;53.210;6.948;2022-12-29T01:26:16;9.20;99.90
53800;DHT22;39708;53.210;6.948;2022-12-29T01:28:42;9.10;99.90
53800;DHT22;39708;53.210;6.948;2022-12-29T01:31:09;9.20;99.90
53800;DHT22;39708;53.210;6.948;2022-12-29T01:33:34;9.00;99.90
53800;DHT22;39708;53.210;6.948;2022-12-29T01:36:01;8.90;99.90
53800;DHT22;39708;53.210;6.948;2022-12-29T01:38:27;9.10;99.90
53800;DHT22;39708;53.210;6.948;2022-12-29T01:40:52;9.10;99.90
53800;DHT22;39708;53.210;6.948;2022-12-29T01:43:18;9.10;99.90
53800;DHT22;39708;53.210;6.948;2022-12-29T01:45:47;9.20;99.90
53800;DHT22;39708;53.210;6.948;2022-12-29T01:48:14;9.20;99.90
53800;DHT22;39708;53.210;6.948;2022-12-29T01:50:45;9.10;99.90
53800;DHT22;39708;53.210;6.948;2022-12-29T01:53:26;9.00;99.90
53800;DHT22;39708;53.210;6.948;2022-12-29T01:55:55;9.00;99.90
53800;DHT22;39708;53.210;6.948;2022-12-29T01:58:27;8.90;99.90
53800;DHT22;39708;53.210;6.948;2022-12-29T02:00:55;9.00;99.90
53800;DHT22;39708;53.210;6.948;2022-12-29T02:03:22;8.90;99.90
53800;DHT22;39708;53.210;6.948;2022-12-29T02:05:59;8.90;99.90
53800;DHT22;39708;53.210;6.948;2022-12-29T02:08:28;9.00;99.90
53800;DHT22;39708;53.210;6.948;2022-12-29T02:10:56;9.10;99.90
53800;DHT22;39708;53.210;6.948;2022-12-29T02:13:24;8.90;99.90
53800;DHT22;39708;53.210;6.948;2022-12-29T02:21:35;9.00;99.90
53800;DHT22;39708;53.210;6.948;2022-12-29T02:30:34;9.20;99.90
53800;DHT22;39708;53.210;6.948;2022-12-29T02:47:15;9.70;99.90
53800;DHT22;39708;53.210;6.948;2022-12-29T02:49:59;9.50;99.90
53800;DHT22;39708;53.210;6.948;2022-12-29T02:52:36;9.30;99.90
53800;DHT22;39708;53.210;6.948;2022-12-29T02:55:04;9.20;99.90
53800;DHT22;39708;53.210;6.948;2022-12-29T02:57:33;9.30;99.90
53800;DHT22;39708;53.210;6.948;2022-12-29T03:00:08;9.30;99.90
53800;DHT22;39708;53.210;6.948;2022-12-29T03:08:16;9.10;99.90
53800;DHT22;39708;53.210;6.948;2022-12-29T03:11:10;9.10;99.90
53800;DHT22;39708;53.210;6.948;2022-12-29T03:14:07;9.00;99.90
53800;DHT22;39708;53.210;6.948;2022-12-29T03:17:00;9.10;99.90
53800;DHT22;39708;53.210;6.948;2022-12-29T03:19:35;9.30;99.90
53800;DHT22;39708;53.210;6.948;2022-12-29T03:22:09;9.80;99.90
53800;DHT22;39708;53.210;6.948;2022-12-29T03:25:08;9.70;99.90
53800;DHT22;39708;53.210;6.948;2022-12-29T03:27:42;9.70;99.90
53800;DHT22;39708;53.210;6.948;2022-12-29T03:30:10;9.70;99.90
53800;DHT22;39708;53.210;6.948;2022-12-29T03:32:42;9.80;99.90
53800;DHT22;39708;53.210;6.948;2022-12-29T03:35:11;9.90;99.90
53800;DHT22;39708;53.210;6.948;2022-12-29T03:37:41;10.20;99.90
53800;DHT22;39708;53.210;6.948;2022-12-29T03:40:08;10.00;99.90
53800;DHT22;39708;53.210;6.948;2022-12-29T03:42:36;10.20;99.90
53800;DHT22;39708;53.210;6.948;2022-12-29T03:45:04;10.20;99.90
53800;DHT22;39708;53.210;6.948;2022-12-29T03:47:30;10.20;99.90
53800;DHT22;39708;53.210;6.948;2022-12-29T03:49:56;10.20;99.90
53800;DHT22;39708;53.210;6.948;2022-12-29T03:52:21;10.60;99.90
53800;DHT22;39708;53.210;6.948;2022-12-29T03:54:47;10.60;99.90
53800;DHT22;39708;53.210;6.948;2022-12-29T03:57:13;10.30;99.90
53800;DHT22;39708;53.210;6.948;2022-12-29T03:59:39;10.50;99.90
53800;DHT22;39708;53.210;6.948;2022-12-29T04:02:04;10.10;99.90
53800;DHT22;39708;53.210;6.948;2022-12-29T04:04:30;10.30;99.90
53800;DHT22;39708;53.210;6.948;2022-12-29T04:06:55;10.10;99.90
53800;DHT22;39708;53.210;6.948;2022-12-29T04:09:21;10.10;99.90
53800;DHT22;39708;53.210;6.948;2022-12-29T04:11:47;10.10;99.90
53800;DHT22;39708;53.210;6.948;2022-12-29T04:14:12;10.10;99.90
53800;DHT22;39708;53.210;6.948;2022-12-29T04:16:38;10.10;99.90
53800;DHT22;39708;53.210;6.948;2022-12-29T04:19:05;10.10;99.90
53800;DHT22;39708;53.210;6.948;2022-12-29T04:21:31;10.10;99.90
53800;DHT22;39708;53.210;6.948;2022-12-29T04:23:57;10.10;99.90
53800;DHT22;39708;53.210;6.948;2022-12-29T04:26:22;10.10;99.90
53800;DHT22;39708;53.210;6.948;2022-12-29T04:28:48;10.10;99.90
53800;DHT22;39708;53.210;6.948;2022-12-29T04:31:14;10.00;99.90
53800;DHT22;39708;53.210;6.948;2022-12-29T04:33:39;10.00;99.90
53800;DHT22;39708;53.210;6.948;2022-12-29T04:36:05;10.00;99.90
53800;DHT22;39708;53.210;6.948;2022-12-29T04:38:31;9.90;99.90
53800;DHT22;39708;53.210;6.948;2022-12-29T04:40:59;10.00;99.90
53800;DHT22;39708;53.210;6.948;2022-12-29T04:43:25;10.20;99.90
53800;DHT22;39708;53.210;6.948;2022-12-29T04:45:51;10.30;99.90
53800;DHT22;39708;53.210;6.948;2022-12-29T04:48:16;10.30;99.90
53800;DHT22;39708;53.210;6.948;2022-12-29T04:50:42;10.20;99.90
53800;DHT22;39708;53.210;6.948;2022-12-29T04:53:08;10.20;99.90
53800;DHT22;39708;53.210;6.948;2022-12-29T04:55:34;10.20;99.90
53800;DHT22;39708;53.210;6.948;2022-12-29T04:58:00;10.10;99.90
53800;DHT22;39708;53.210;6.948;2022-12-29T05:00:25;10.20;99.90
53800;DHT22;39708;53.210;6.948;2022-12-29T05:02:51;10.20;99.90
53800;DHT22;39708;53.210;6.948;2022-12-29T05:05:17;10.30;99.90
53800;DHT22;39708;53.210;6.948;2022-12-29T05:07:43;10.30;99.90
53800;DHT22;39708;53.210;6.948;2022-12-29T05:10:10;10.20;99.90
53800;DHT22;39708;53.210;6.948;2022-12-29T05:12:36;10.30;99.90
53800;DHT22;39708;53.210;6.948;2022-12-29T05:15:03;10.30;99.90
53800;DHT22;39708;53.210;6.948;2022-12-29T05:17:29;10.30;99.90
53800;DHT22;39708;53.210;6.948;2022-12-29T05:19:55;10.20;99.90
53800;DHT22;39708;53.210;6.948;2022-12-29T05:22:21;10.20;99.90
53800;DHT22;39708;53.210;6.948;2022-12-29T05:24:47;10.20;99.90
53800;DHT22;39708;53.210;6.948;2022-12-29T05:27:13;10.10;99.90
53800;DHT22;39708;53.210;6.948;2022-12-29T05:29:39;10.00;99.90
53800;DHT22;39708;53.210;6.948;2022-12-29T05:32:04;10.00;99.90
53800;DHT22;39708;53.210;6.948;2022-12-29T05:34:30;9.80;99.90
53800;DHT22;39708;53.210;6.948;2022-12-29T05:36:56;9.80;99.90
53800;DHT22;39708;53.210;6.948;2022-12-29T05:39:21;9.70;99.90
53800;DHT22;39708;53.210;6.948;2022-12-29T05:41:47;9.60;99.90
53800;DHT22;39708;53.210;6.948;2022-12-29T05:44:13;9.50;99.90
53800;DHT22;39708;53.210;6.948;2022-12-29T05:46:38;9.90;99.90
53800;DHT22;39708;53.210;6.948;2022-12-29T05:49:05;9.50;99.90
53800;DHT22;39708;53.210;6.948;2022-12-29T05:51:30;9.40;99.90
53800;DHT22;39708;53.210;6.948;2022-12-29T05:53:56;9.40;99.90
53800;DHT22;39708;53.210;6.948;2022-12-29T05:56:22;9.40;99.90
53800;DHT22;39708;53.210;6.948;2022-12-29T05:58:48;9.40;99.90
53800;DHT22;39708;53.210;6.948;2022-12-29T06:01:14;9.50;99.90
53800;DHT22;39708;53.210;6.948;2022-12-29T06:03:40;9.30;99.90
53800;DHT22;39708;53.210;6.948;2022-12-29T06:06:05;9.40;99.90
53800;DHT22;39708;53.210;6.948;2022-12-29T06:08:31;9.30;99.90
53800;DHT22;39708;53.210;6.948;2022-12-29T06:10:57;9.30;99.90
53800;DHT22;39708;53.210;6.948;2022-12-29T06:13:22;9.10;99.90
53800;DHT22;39708;53.210;6.948;2022-12-29T06:15:49;9.00;99.90
53800;DHT22;39708;53.210;6.948;2022-12-29T06:18:15;9.10;99.90
53800;DHT22;39708;53.210;6.948;2022-12-29T06:20:40;9.10;99.90
53800;DHT22;39708;53.210;6.948;2022-12-29T06:23:06;9.00;99.90
53800;DHT22;39708;53.210;6.948;2022-12-29T06:25:32;9.00;99.90
53800;DHT22;39708;53.210;6.948;2022-12-29T06:27:59;8.90;99.90
53800;DHT22;39708;53.210;6.948;2022-12-29T06:30:25;9.00;99.90
53800;DHT22;39708;53.210;6.948;2022-12-29T06:32:50;9.30;99.90
53800;DHT22;39708;53.210;6.948;2022-12-29T06:35:16;9.00;99.90
53800;DHT22;39708;53.210;6.948;2022-12-29T06:37:42;9.40;99.90
53800;DHT22;39708;53.210;6.948;2022-12-29T06:40:09;9.00;99.90
53800;DHT22;39708;53.210;6.948;2022-12-29T06:42:34;9.20;99.90
53800;DHT22;39708;53.210;6.948;2022-12-29T06:45:01;9.40;99.90
53800;DHT22;39708;53.210;6.948;2022-12-29T06:47:26;9.50;99.90
53800;DHT22;39708;53.210;6.948;2022-12-29T06:49:52;9.30;99.90
53800;DHT22;39708;53.210;6.948;2022-12-29T06:52:18;9.40;99.90
53800;DHT22;39708;53.210;6.948;2022-12-29T06:54:43;9.30;99.90
53800;DHT22;39708;53.210;6.948;2022-12-29T06:57:09;9.30;99.90
53800;DHT22;39708;53.210;6.948;2022-12-29T06:59:35;9.30;99.90
53800;DHT22;39708;53.210;6.948;2022-12-29T07:02:01;9.30;99.90
53800;DHT22;39708;53.210;6.948;2022-12-29T07:04:28;9.30;99.90
53800;DHT22;39708;53.210;6.948;2022-12-29T07:06:54;9.30;99.90
53800;DHT22;39708;53.210;6.948;2022-12-29T07:09:20;9.30;99.90
53800;DHT22;39708;53.210;6.948;2022-12-29T07:11:45;9.30;99.90
53800;DHT22;39708;53.210;6.948;2022-12-29T07:14:11;9.30;99.90
53800;DHT22;39708;53.210;6.948;2022-12-29T07:16:37;9.40;99.90
53800;DHT22;39708;53.210;6.948;2022-12-29T07:19:03;9.20;99.90
53800;DHT22;39708;53.210;6.948;2022-12-29T07:21:29;8.90;99.90
53800;DHT22;39708;53.210;6.948;2022-12-29T07:23:55;9.30;99.90
53800;DHT22;39708;53.210;6.948;2022-12-29T07:26:21;9.30;99.90
53800;DHT22;39708;53.210;6.948;2022-12-29T07:28:47;9.10;99.90
53800;DHT22;39708;53.210;6.948;2022-12-29T07:31:17;9.10;99.90
53800;DHT22;39708;53.210;6.948;2022-12-29T07:33:44;9.10;99.90
53800;DHT22;39708;53.210;6.948;2022-12-29T07:36:10;9.20;99.90
53800;DHT22;39708;53.210;6.948;2022-12-29T07:38:36;9.30;99.90
53800;DHT22;39708;53.210;6.948;2022-12-29T07:41:02;9.40;99.90
53800;DHT22;39708;53.210;6.948;2022-12-29T07:43:28;9.40;99.90
53800;DHT22;39708;53.210;6.948;2022-12-29T07:45:54;9.30;99.90
53800;DHT22;39708;53.210;6.948;2022-12-29T07:48:19;9.40;99.90
53800;DHT22;39708;53.210;6.948;2022-12-29T07:50:45;9.40;99.90
53800;DHT22;39708;53.210;6.948;2022-12-29T07:53:10;9.40;99.90
53800;DHT22;39708;53.210;6.948;2022-12-29T07:55:36;9.40;99.90
53800;DHT22;39708;53.210;6.948;2022-12-29T07:58:02;9.40;99.90
53800;DHT22;39708;53.210;6.948;2022-12-29T08:00:27;9.60;99.90
53800;DHT22;39708;53.210;6.948;2022-12-29T08:02:53;9.40;99.90
53800;DHT22;39708;53.210;6.948;2022-12-29T08:05:19;9.60;99.90
53800;DHT22;39708;53.210;6.948;2022-12-29T08:07:45;9.50;99.90
53800;DHT22;39708;53.210;6.948;2022-12-29T08:10:12;9.60;99.90
53800;DHT22;39708;53.210;6.948;2022-12-29T08:12:38;9.60;99.90
53800;DHT22;39708;53.210;6.948;2022-12-29T08:15:05;9.60;99.90
53800;DHT22;39708;53.210;6.948;2022-12-29T08:17:31;9.50;99.90
53800;DHT22;39708;53.210;6.948;2022-12-29T08:19:57;9.50;99.90
53800;DHT22;39708;53.210;6.948;2022-12-29T08:22:23;9.50;99.90
53800;DHT22;39708;53.210;6.948;2022-12-29T08:24:48;9.50;99.90
53800;DHT22;39708;53.210;6.948;2022-12-29T08:27:14;9.50;99.90
53800;DHT22;39708;53.210;6.948;2022-12-29T08:29:39;9.50;99.90
53800;DHT22;39708;53.210;6.948;2022-12-29T08:32:05;9.50;99.90
53800;DHT22;39708;53.210;6.948;2022-12-29T08:34:32;9.50;99.90
53800;DHT22;39708;53.210;6.948;2022-12-29T08:36:58;9.60;99.90
53800;DHT22;39708;53.210;6.948;2022-12-29T08:39:24;9.50;99.90
53800;DHT22;39708;53.210;6.948;2022-12-29T08:41:49;9.50;99.90
53800;DHT22;39708;53.210;6.948;2022-12-29T08:44:15;9.60;99.90
53800;DHT22;39708;53.210;6.948;2022-12-29T08:46:41;9.90;99.90
53800;DHT22;39708;53.210;6.948;2022-12-29T08:49:06;9.60;99.90
53800;DHT22;39708;53.210;6.948;2022-12-29T08:51:32;9.50;99.90
53800;DHT22;39708;53.210;6.948;2022-12-29T08:53:58;9.50;99.90
53800;DHT22;39708;53.210;6.948;2022-12-29T08:56:24;9.50;99.90
53800;DHT22;39708;53.210;6.948;2022-12-29T08:58:51;9.40;99.90
53800;DHT22;39708;53.210;6.948;2022-12-29T09:01:16;9.50;99.90
53800;DHT22;39708;53.210;6.948;2022-12-29T09:03:42;9.40;99.90
53800;DHT22;39708;53.210;6.948;2022-12-29T09:06:08;9.30;99.90
53800;DHT22;39708;53.210;6.948;2022-12-29T09:08:34;9.40;99.90
53800;DHT22;39708;53.210;6.948;2022-12-29T09:11:11;9.30;99.90
53800;DHT22;39708;53.210;6.948;2022-12-29T09:13:37;9.20;99.90
53800;DHT22;39708;53.210;6.948;2022-12-29T09:16:03;9.20;99.90
53800;DHT22;39708;53.210;6.948;2022-12-29T09:18:29;9.30;99.90
53800;DHT22;39708;53.210;6.948;2022-12-29T09:20:57;9.40;99.90
53800;DHT22;39708;53.210;6.948;2022-12-29T09:23:23;9.20;99.90
53800;DHT22;39708;53.210;6.948;2022-12-29T09:25:49;9.40;99.90
53800;DHT22;39708;53.210;6.948;2022-12-29T09:28:14;9.30;99.90
53800;DHT22;39708;53.210;6.948;2022-12-29T09:30:41;9.50;99.90
53800;DHT22;39708;53.210;6.948;2022-12-29T09:33:07;9.10;99.90
53800;DHT22;39708;53.210;6.948;2022-12-29T09:35:32;9.30;99.90
53800;DHT22;39708;53.210;6.948;2022-12-29T09:37:58;9.30;99.90
53800;DHT22;39708;53.210;6.948;2022-12-29T09:40:30;9.30;99.90
53800;DHT22;39708;53.210;6.948;2022-12-29T09:43:27;9.20;99.90
53800;DHT22;39708;53.210;6.948;2022-12-29T09:46:03;9.20;99.90
53800;DHT22;39708;53.210;6.948;2022-12-29T09:48:37;9.10;99.90
53800;DHT22;39708;53.210;6.948;2022-12-29T09:51:13;9.00;99.90
53800;DHT22;39708;53.210;6.948;2022-12-29T09:53:47;9.10;99.90
53800;DHT22;39708;53.210;6.948;2022-12-29T09:56:19;9.00;99.90
53800;DHT22;39708;53.210;6.948;2022-12-29T10:01:30;9.00;99.90
53800;DHT22;39708;53.210;6.948;2022-12-29T10:03:57;9.00;99.90
53800;DHT22;39708;53.210;6.948;2022-12-29T10:09:45;9.10;99.90
53800;DHT22;39708;53.210;6.948;2022-12-29T10:20:49;9.00;99.90
53800;DHT22;39708;53.210;6.948;2022-12-29T10:23:27;9.10;99.90
53800;DHT22;39708;53.210;6.948;2022-12-29T10:25:56;9.10;99.90
53800;DHT22;39708;53.210;6.948;2022-12-29T10:28:32;9.20;99.90
53800;DHT22;39708;53.210;6.948;2022-12-29T10:31:00;9.20;99.90
53800;DHT22;39708;53.210;6.948;2022-12-29T10:33:32;9.20;99.90
53800;DHT22;39708;53.210;6.948;2022-12-29T10:36:26;9.20;99.90
53800;DHT22;39708;53.210;6.948;2022-12-29T10:42:01;9.10;99.90
53800;DHT22;39708;53.210;6.948;2022-12-29T10:44:31;9.10;99.90
53800;DHT22;39708;53.210;6.948;2022-12-29T10:47:01;9.00;99.90
53800;DHT22;39708;53.210;6.948;2022-12-29T10:49:29;8.90;99.90
53800;DHT22;39708;53.210;6.948;2022-12-29T10:51:59;8.90;99.90
53800;DHT22;39708;53.210;6.948;2022-12-29T10:54:33;9.10;99.90
53800;DHT22;39708;53.210;6.948;2022-12-29T10:57:03;8.90;99.90
53800;DHT22;39708;53.210;6.948;2022-12-29T10:59:33;8.90;99.90
53800;DHT22;39708;53.210;6.948;2022-12-29T11:04:36;8.80;99.90
53800;DHT22;39708;53.210;6.948;2022-12-29T11:07:07;8.80;99.90
53800;DHT22;39708;53.210;6.948;2022-12-29T11:09:36;8.80;99.90
53800;DHT22;39708;53.210;6.948;2022-12-29T11:18:03;8.60;99.90
53800;DHT22;39708;53.210;6.948;2022-12-29T11:20:36;8.70;99.90
53800;DHT22;39708;53.210;6.948;2022-12-29T11:28:36;8.90;99.90
53800;DHT22;39708;53.210;6.948;2022-12-29T11:31:04;9.10;99.90
53800;DHT22;39708;53.210;6.948;2022-12-29T11:33:32;9.00;99.90
53800;DHT22;39708;53.210;6.948;2022-12-29T11:38:38;9.10;99.90
53800;DHT22;39708;53.210;6.948;2022-12-29T11:41:05;9.20;99.90
53800;DHT22;39708;53.210;6.948;2022-12-29T11:43:41;9.30;99.90
53800;DHT22;39708;53.210;6.948;2022-12-29T11:46:14;9.30;99.90
53800;DHT22;39708;53.210;6.948;2022-12-29T11:48:42;9.40;99.90
53800;DHT22;39708;53.210;6.948;2022-12-29T11:51:08;9.40;99.90
53800;DHT22;39708;53.210;6.948;2022-12-29T11:53:42;9.60;99.90
53800;DHT22;39708;53.210;6.948;2022-12-29T11:56:12;10.00;99.90
53800;DHT22;39708;53.210;6.948;2022-12-29T11:58:38;9.60;99.90
53800;DHT22;39708;53.210;6.948;2022-12-29T12:01:10;9.60;99.90
53800;DHT22;39708;53.210;6.948;2022-12-29T12:03:45;9.70;99.90
53800;DHT22;39708;53.210;6.948;2022-12-29T12:06:16;9.80;99.90
53800;DHT22;39708;53.210;6.948;2022-12-29T12:08:55;10.00;99.90
53800;DHT22;39708;53.210;6.948;2022-12-29T12:11:28;9.90;99.90
53800;DHT22;39708;53.210;6.948;2022-12-29T12:14:21;10.00;99.90
53800;DHT22;39708;53.210;6.948;2022-12-29T12:16:58;10.00;99.90
53800;DHT22;39708;53.210;6.948;2022-12-29T12:20:00;9.80;99.90
53800;DHT22;39708;53.210;6.948;2022-12-29T12:22:45;9.70;99.90
53800;DHT22;39708;53.210;6.948;2022-12-29T12:25:22;9.60;99.90
53800;DHT22;39708;53.210;6.948;2022-12-29T12:27:57;9.60;99.90
53800;DHT22;39708;53.210;6.948;2022-12-29T12:30:26;9.70;99.90
53800;DHT22;39708;53.210;6.948;2022-12-29T12:55:04;9.30;99.90
53800;DHT22;39708;53.210;6.948;2022-12-29T13:08:38;9.10;99.90
53800;DHT22;39708;53.210;6.948;2022-12-29T13:11:18;9.10;99.90
53800;DHT22;39708;53.210;6.948;2022-12-29T13:14:01;9.20;99.90
53800;DHT22;39708;53.210;6.948;2022-12-29T13:19:41;9.20;99.90
53800;DHT22;39708;53.210;6.948;2022-12-29T13:22:16;9.30;99.90
53800;DHT22;39708;53.210;6.948;2022-12-29T13:24:59;9.40;99.90
53800;DHT22;39708;53.210;6.948;2022-12-29T13:30:09;9.40;99.90
53800;DHT22;39708;53.210;6.948;2022-12-29T13:41:05;9.20;99.90
53800;DHT22;39708;53.210;6.948;2022-12-29T13:43:34;9.10;99.90
53800;DHT22;39708;53.210;6.948;2022-12-29T13:46:13;9.10;99.90
53800;DHT22;39708;53.210;6.948;2022-12-29T13:48:45;9.10;99.90
53800;DHT22;39708;53.210;6.948;2022-12-29T13:51:13;9.20;99.90
53800;DHT22;39708;53.210;6.948;2022-12-29T13:54:01;9.20;99.90
53800;DHT22;39708;53.210;6.948;2022-12-29T13:59:51;9.00;99.90
53800;DHT22;39708;53.210;6.948;2022-12-29T14:07:44;9.10;99.90
53800;DHT22;39708;53.210;6.948;2022-12-29T14:10:33;9.10;99.90
53800;DHT22;39708;53.210;6.948;2022-12-29T14:13:14;9.10;99.90
53800;DHT22;39708;53.210;6.948;2022-12-29T14:15:44;9.10;99.90
53800;DHT22;39708;53.210;6.948;2022-12-29T14:20:37;9.20;99.90
53800;DHT22;39708;53.210;6.948;2022-12-29T14:26:15;9.10;99.90
53800;DHT22;39708;53.210;6.948;2022-12-29T14:28:46;9.10;99.90
53800;DHT22;39708;53.210;6.948;2022-12-29T14:36:57;8.90;99.90
53800;DHT22;39708;53.210;6.948;2022-12-29T14:39:38;9.00;99.90
53800;DHT22;39708;53.210;6.948;2022-12-29T14:44:52;9.00;99.90
53800;DHT22;39708;53.210;6.948;2022-12-29T14:47:22;9.00;99.90
53800;DHT22;39708;53.210;6.948;2022-12-29T14:49:51;9.00;99.90
53800;DHT22;39708;53.210;6.948;2022-12-29T14:52:21;8.90;99.90
53800;DHT22;39708;53.210;6.948;2022-12-29T14:54:50;8.90;99.90
53800;DHT22;39708;53.210;6.948;2022-12-29T14:57:25;8.80;99.90
53800;DHT22;39708;53.210;6.948;2022-12-29T14:59:54;8.90;99.90
53800;DHT22;39708;53.210;6.948;2022-12-29T15:02:24;8.80;99.90
53800;DHT22;39708;53.210;6.948;2022-12-29T15:04:51;8.70;99.90
53800;DHT22;39708;53.210;6.948;2022-12-29T15:07:18;8.70;99.90
53800;DHT22;39708;53.210;6.948;2022-12-29T15:09:47;9.00;99.90
53800;DHT22;39708;53.210;6.948;2022-12-29T15:12:23;8.90;99.90
53800;DHT22;39708;53.210;6.948;2022-12-29T15:14:59;8.80;99.90
53800;DHT22;39708;53.210;6.948;2022-12-29T15:17:34;8.60;99.90
53800;DHT22;39708;53.210;6.948;2022-12-29T15:20:26;8.60;99.90
53800;DHT22;39708;53.210;6.948;2022-12-29T15:23:03;8.60;99.90
53800;DHT22;39708;53.210;6.948;2022-12-29T15:25:33;8.50;99.90
53800;DHT22;39708;53.210;6.948;2022-12-29T15:28:03;8.50;99.90
53800;DHT22;39708;53.210;6.948;2022-12-29T15:30:29;8.40;99.90
53800;DHT22;39708;53.210;6.948;2022-12-29T15:32:55;8.50;99.90
53800;DHT22;39708;53.210;6.948;2022-12-29T15:35:41;8.50;99.90
53800;DHT22;39708;53.210;6.948;2022-12-29T15:38:15;8.50;99.90
53800;DHT22;39708;53.210;6.948;2022-12-29T15:40:44;8.30;99.90
53800;DHT22;39708;53.210;6.948;2022-12-29T15:43:48;8.30;99.90
53800;DHT22;39708;53.210;6.948;2022-12-29T15:46:17;8.30;99.90
53800;DHT22;39708;53.210;6.948;2022-12-29T15:48:43;8.30;99.90
53800;DHT22;39708;53.210;6.948;2022-12-29T15:51:19;8.40;99.90
53800;DHT22;39708;53.210;6.948;2022-12-29T15:53:50;8.20;99.90
53800;DHT22;39708;53.210;6.948;2022-12-29T15:56:16;8.20;99.90
53800;DHT22;39708;53.210;6.948;2022-12-29T15:58:48;8.50;99.90
53800;DHT22;39708;53.210;6.948;2022-12-29T16:01:40;8.20;99.90
53800;DHT22;39708;53.210;6.948;2022-12-29T16:04:08;8.20;99.90
53800;DHT22;39708;53.210;6.948;2022-12-29T16:06:39;8.10;99.90
53800;DHT22;39708;53.210;6.948;2022-12-29T16:09:18;8.10;99.90
53800;DHT22;39708;53.210;6.948;2022-12-29T16:11:46;8.00;99.90
53800;DHT22;39708;53.210;6.948;2022-12-29T16:14:19;8.00;99.90
53800;DHT22;39708;53.210;6.948;2022-12-29T16:16:46;8.00;99.90
53800;DHT22;39708;53.210;6.948;2022-12-29T16:19:21;7.90;99.90
53800;DHT22;39708;53.210;6.948;2022-12-29T16:21:48;7.90;99.90
53800;DHT22;39708;53.210;6.948;2022-12-29T16:24:16;7.90;99.90
53800;DHT22;39708;53.210;6.948;2022-12-29T16:26:53;7.90;99.90
53800;DHT22;39708;53.210;6.948;2022-12-29T16:29:22;7.90;99.90
53800;DHT22;39708;53.210;6.948;2022-12-29T16:31:56;7.90;99.90
53800;DHT22;39708;53.210;6.948;2022-12-29T16:37:32;7.40;99.90
53800;DHT22;39708;53.210;6.948;2022-12-29T16:40:37;7.10;99.90
53800;DHT22;39708;53.210;6.948;2022-12-29T16:43:04;7.00;99.90
53800;DHT22;39708;53.210;6.948;2022-12-29T16:50:41;7.50;99.90
53800;DHT22;39708;53.210;6.948;2022-12-29T16:55:47;6.90;99.90
53800;DHT22;39708;53.210;6.948;2022-12-29T16:58:19;7.00;99.90
53800;DHT22;39708;53.210;6.948;2022-12-29T17:00:46;7.20;99.90
53800;DHT22;39708;53.210;6.948;2022-12-29T17:03:13;6.70;99.90
53800;DHT22;39708;53.210;6.948;2022-12-29T17:05:39;6.40;99.90
53800;DHT22;39708;53.210;6.948;2022-12-29T17:08:16;6.20;99.90
53800;DHT22;39708;53.210;6.948;2022-12-29T17:10:52;6.00;99.90
53800;DHT22;39708;53.210;6.948;2022-12-29T17:13:37;5.80;99.90
53800;DHT22;39708;53.210;6.948;2022-12-29T17:16:04;5.70;99.90
53800;DHT22;39708;53.210;6.948;2022-12-29T17:18:32;5.50;99.90
53800;DHT22;39708;53.210;6.948;2022-12-29T17:20:58;5.50;99.90
53800;DHT22;39708;53.210;6.948;2022-12-29T17:23:24;5.50;99.90
53800;DHT22;39708;53.210;6.948;2022-12-29T17:25:50;5.60;99.90
53800;DHT22;39708;53.210;6.948;2022-12-29T17:28:26;5.40;99.90
53800;DHT22;39708;53.210;6.948;2022-12-29T17:30:55;5.40;99.90
53800;DHT22;39708;53.210;6.948;2022-12-29T17:33:22;5.30;99.90
53800;DHT22;39708;53.210;6.948;2022-12-29T17:35:48;5.30;99.90
53800;DHT22;39708;53.210;6.948;2022-12-29T17:38:28;5.30;99.90
53800;DHT22;39708;53.210;6.948;2022-12-29T17:40:54;5.40;99.90
53800;DHT22;39708;53.210;6.948;2022-12-29T17:43:20;5.50;99.90
53800;DHT22;39708;53.210;6.948;2022-12-29T17:45:50;5.40;99.90
53800;DHT22;39708;53.210;6.948;2022-12-29T17:48:18;6.10;99.90
53800;DHT22;39708;53.210;6.948;2022-12-29T17:50:48;5.60;99.90
53800;DHT22;39708;53.210;6.948;2022-12-29T17:53:24;5.80;99.90
53800;DHT22;39708;53.210;6.948;2022-12-29T17:55:50;6.00;99.90
53800;DHT22;39708;53.210;6.948;2022-12-29T17:58:21;6.30;99.90
53800;DHT22;39708;53.210;6.948;2022-12-29T18:00:49;6.30;99.90
53800;DHT22;39708;53.210;6.948;2022-12-29T18:03:17;6.40;99.90
53800;DHT22;39708;53.210;6.948;2022-12-29T18:05:43;6.40;99.90
53800;DHT22;39708;53.210;6.948;2022-12-29T18:08:10;6.40;99.90
53800;DHT22;39708;53.210;6.948;2022-12-29T18:10:37;6.60;99.90
53800;DHT22;39708;53.210;6.948;2022-12-29T18:13:03;6.80;99.90
53800;DHT22;39708;53.210;6.948;2022-12-29T18:15:31;6.60;99.90
53800;DHT22;39708;53.210;6.948;2022-12-29T18:18:10;6.60;99.90
53800;DHT22;39708;53.210;6.948;2022-12-29T18:20:37;6.70;99.90
53800;DHT22;39708;53.210;6.948;2022-12-29T18:23:03;6.70;99.90
53800;DHT22;39708;53.210;6.948;2022-12-29T18:28:02;6.70;99.90
53800;DHT22;39708;53.210;6.948;2022-12-29T18:30:28;6.80;99.90
53800;DHT22;39708;53.210;6.948;2022-12-29T18:32:54;6.70;99.90
53800;DHT22;39708;53.210;6.948;2022-12-29T18:38:08;6.80;99.90